Time;durP1;ratioP1;P1;durP2;ratioP2;P2;SDS_P1;SDS_P2;PMS_P1;PMS_P2;Temp;Humidity;BMP_temperature;BMP_pressure;BME280_temperature;BME280_humidity;BME280_pressure;Samples;Min_cycle;Max_cycle;Signal;HPM_P1;HPM_P2
2022/10/18 00:01:51;;;;;;;10.20;5.20;;;;;;;-141.28;100.00;49529.50;5133424;27;20491;-79
2022/10/18 00:04:18;;;;;;;7.33;5.03;;;;;;;-141.28;100.00;49560.88;5133325;27;20452;-78
2022/10/18 00:06:45;;;;;;;7.97;4.70;;;;;;;-141.28;100.00;49539.31;5133413;27;20713;-80
2022/10/18 00:09:12;;;;;;;5.33;3.90;;;;;;;-141.28;100.00;49472.59;5133646;27;20872;-78
2022/10/18 00:11:41;;;;;;;7.13;3.83;;;;;;;-141.28;100.00;49494.16;5134421;27;20425;-76
2022/10/18 00:14:08;;;;;;;7.60;3.73;;;;;;;-141.28;100.00;49509.88;5122394;27;20448;-79
2022/10/18 00:16:35;;;;;;;6.83;3.70;;;;;;;-141.28;100.00;49494.16;5113018;27;20848;-80
2022/10/18 00:19:01;;;;;;;4.50;3.40;;;;;;;-141.28;100.00;49498.09;5133961;27;20448;-76
2022/10/18 00:21:29;;;;;;;7.43;4.20;;;;;;;-141.28;100.00;49452.97;5132509;27;20222;-78
2022/10/18 00:23:56;;;;;;;7.67;3.50;;;;;;;-141.28;100.00;49490.25;5133116;27;20516;-80
2022/10/18 00:26:26;;;;;;;6.27;3.80;;;;;;;-141.28;100.00;49439.22;5133028;27;20448;-80
2022/10/18 00:28:57;;;;;;;6.23;4.20;;;;;;;-141.28;100.00;49451.00;5120884;27;20448;-76
2022/10/18 00:31:27;;;;;;;7.30;4.03;;;;;;;-141.28;100.00;49451.00;5133059;27;20432;-76
2022/10/18 00:33:55;;;;;;;7.23;3.80;;;;;;;-141.28;100.00;49362.69;5132735;27;20448;-76
2022/10/18 00:36:33;;;;;;;5.77;3.90;;;;;;;-141.28;100.00;49451.00;5132803;27;20767;-78
2022/10/18 00:39:00;;;;;;;6.70;4.17;;;;;;;-141.28;100.00;49443.16;5132680;27;20444;-76
2022/10/18 00:41:29;;;;;;;7.10;4.47;;;;;;;-141.28;100.00;49392.13;5121282;27;20483;-78
2022/10/18 00:44:01;;;;;;;11.20;5.50;;;;;;;-141.28;100.00;49403.91;5132504;27;20444;-76
2022/10/18 00:46:30;;;;;;;9.13;4.87;;;;;;;-141.28;100.00;49454.94;5132773;27;20440;-76
2022/10/18 00:48:59;;;;;;;9.57;5.10;;;;;;;-141.28;100.00;49403.91;5132502;27;20444;-76
2022/10/18 00:51:32;;;;;;;12.50;7.10;;;;;;;-141.28;100.00;49364.66;5132504;27;20966;-75
2022/10/18 00:54:00;;;;;;;13.03;6.60;;;;;;;-141.28;100.00;49384.28;5132085;27;20455;-79
2022/10/18 00:56:26;;;;;;;13.53;7.10;;;;;;;-141.28;100.00;49384.28;5132300;27;20443;-76
2022/10/18 00:58:54;;;;;;;11.50;6.63;;;;;;;-141.28;100.00;49362.69;5132667;27;20902;-75
2022/10/18 01:01:22;;;;;;;11.80;5.83;;;;;;;-141.28;100.00;49343.06;5132337;28;20548;-76
2022/10/18 01:03:51;;;;;;;13.53;7.03;;;;;;;-141.28;100.00;49345.03;5132608;28;20566;-79
2022/10/18 01:06:19;;;;;;;16.23;7.53;;;;;;;-141.28;100.00;49380.34;5132539;28;20444;-78
2022/10/18 01:09:06;;;;;;;12.33;7.83;;;;;;;-141.28;100.00;49427.44;5132095;28;20451;-76
2022/10/18 01:11:56;;;;;;;15.87;8.47;;;;;;;-141.28;100.00;49443.16;5132406;28;20448;-76
2022/10/18 01:14:35;;;;;;;14.37;7.93;;;;;;;-141.28;100.00;49466.69;5132544;28;20516;-79
2022/10/18 01:17:12;;;;;;;17.73;9.60;;;;;;;-141.28;100.00;49433.34;5132015;28;20448;-79
2022/10/18 01:20:12;;;;;;;14.73;8.33;;;;;;;-141.28;100.00;49443.16;5132269;28;20447;-76
2022/10/18 01:22:44;;;;;;;17.77;8.10;;;;;;;-141.28;100.00;49399.97;5117303;28;20928;-77
2022/10/18 01:25:27;;;;;;;19.03;9.23;;;;;;;-141.28;100.00;49399.97;5132494;28;20447;-77
2022/10/18 01:28:05;;;;;;;20.97;8.70;;;;;;;-141.28;100.00;49368.59;5133378;27;20447;-77
2022/10/18 01:30:54;;;;;;;19.07;9.20;;;;;;;-141.28;100.00;49390.16;5136367;27;21022;-76
2022/10/18 01:33:28;;;;;;;17.07;7.70;;;;;;;-141.28;100.00;49399.97;5136653;27;20447;-77
2022/10/18 01:36:00;;;;;;;20.87;8.13;;;;;;;-141.28;100.00;49376.44;5136893;27;20470;-76
2022/10/18 01:38:31;;;;;;;14.83;8.27;;;;;;;-141.28;100.00;49364.66;5137407;27;20450;-76
2022/10/18 01:40:59;;;;;;;19.47;8.73;;;;;;;-141.28;100.00;49325.41;5135880;27;20475;-78
2022/10/18 01:43:28;;;;;;;17.57;8.83;;;;;;;-141.28;100.00;49309.72;5136026;27;20451;-79
2022/10/18 01:46:02;;;;;;;15.73;8.07;;;;;;;-141.28;100.00;49313.66;5136031;27;20456;-80
2022/10/18 01:48:30;;;;;;;17.70;8.60;;;;;;;-141.28;100.00;49282.25;5135863;27;20436;-77
2022/10/18 01:50:57;;;;;;;15.73;8.13;;;;;;;-141.28;100.00;49262.63;5135836;27;20447;-75
2022/10/18 01:53:26;;;;;;;16.33;8.57;;;;;;;-141.28;100.00;49215.53;5136575;27;20450;-75
2022/10/18 01:56:14;;;;;;;17.30;8.10;;;;;;;-141.28;100.00;49243.00;5136711;27;20447;-76
2022/10/18 01:58:48;;;;;;;19.07;8.70;;;;;;;-141.28;100.00;49274.41;5136418;27;20993;-76
2022/10/18 02:01:25;;;;;;;16.87;8.70;;;;;;;-141.28;100.00;49274.41;5136206;27;20570;-76
2022/10/18 02:03:56;;;;;;;19.60;9.07;;;;;;;-141.28;100.00;49248.88;5124707;27;20888;-79
2022/10/18 02:06:29;;;;;;;17.70;9.53;;;;;;;-141.28;100.00;49239.09;5136195;27;20447;-76
2022/10/18 02:09:03;;;;;;;15.10;8.37;;;;;;;-141.28;100.00;49223.38;5135447;27;20471;-75
2022/10/18 02:11:32;;;;;;;16.00;9.27;;;;;;;-141.28;100.00;49219.47;5136092;27;20492;-79
2022/10/18 02:14:05;;;;;;;14.20;8.80;;;;;;;-141.28;100.00;49235.16;5135445;27;20447;-78
2022/10/18 02:16:37;;;;;;;25.47;9.80;;;;;;;-141.28;100.00;49243.00;5136044;27;20443;-75
2022/10/18 02:19:10;;;;;;;18.87;9.07;;;;;;;-141.28;100.00;49223.38;5136332;27;20443;-77
2022/10/18 02:21:40;;;;;;;16.77;8.67;;;;;;;-141.28;100.00;49239.09;5136109;27;20479;-77
2022/10/18 02:24:09;;;;;;;18.37;9.00;;;;;;;-141.28;100.00;49215.53;5137337;27;20436;-75
2022/10/18 02:26:36;;;;;;;14.83;9.20;;;;;;;-141.28;100.00;49203.75;5135907;27;20462;-78
2022/10/18 02:29:04;;;;;;;18.70;9.20;;;;;;;-141.28;100.00;49203.75;5122574;27;20524;-78
2022/10/18 02:31:37;;;;;;;17.00;9.07;;;;;;;-141.28;100.00;49211.59;5135229;27;20451;-77
2022/10/18 02:34:11;;;;;;;14.27;8.90;;;;;;;-141.28;100.00;49219.47;5135049;27;20448;-79
2022/10/18 02:36:42;;;;;;;21.73;9.00;;;;;;;-141.28;100.00;49221.41;5135338;27;20946;-78
2022/10/18 02:39:14;;;;;;;18.23;9.03;;;;;;;-141.28;100.00;49209.66;5141572;27;20452;-78
2022/10/18 02:41:42;;;;;;;16.73;8.73;;;;;;;-141.28;100.00;49239.09;5142060;27;20977;-73
2022/10/18 02:44:09;;;;;;;14.50;8.90;;;;;;;-141.28;100.00;49197.88;5142749;27;20448;-76
2022/10/18 02:46:38;;;;;;;20.13;8.93;;;;;;;-141.28;100.00;49164.53;5144169;27;20448;-77
2022/10/18 02:49:05;;;;;;;15.80;9.07;;;;;;;-141.28;100.00;49156.66;5142970;27;20824;-77
2022/10/18 02:51:32;;;;;;;13.10;7.90;;;;;;;-141.28;100.00;49168.44;5142573;27;20950;-77
2022/10/18 02:54:00;;;;;;;16.17;9.03;;;;;;;-141.28;100.00;49170.41;5125812;27;20436;-76
2022/10/18 02:56:27;;;;;;;17.03;9.00;;;;;;;-141.28;100.00;49180.22;5134768;27;20451;-76
2022/10/18 02:58:54;;;;;;;19.33;9.60;;;;;;;-141.28;100.00;49164.53;5134756;27;20468;-78
2022/10/18 03:01:21;;;;;;;21.60;11.43;;;;;;;-141.28;100.00;49164.53;5135959;27;20491;-76
2022/10/18 03:03:49;;;;;;;18.60;9.83;;;;;;;-141.28;100.00;49188.06;5133672;27;20452;-79
2022/10/18 03:06:17;;;;;;;21.70;11.50;;;;;;;-141.28;100.00;49184.13;5134300;27;20459;-76
2022/10/18 03:08:44;;;;;;;20.87;11.33;;;;;;;-141.28;100.00;49190.03;5134208;27;20451;-79
2022/10/18 03:11:12;;;;;;;23.07;11.53;;;;;;;-141.28;100.00;49184.13;5134460;27;20445;-79
2022/10/18 03:13:38;;;;;;;25.97;11.30;;;;;;;-141.28;100.00;49223.38;5134212;27;20500;-77
2022/10/18 03:16:06;;;;;;;24.70;11.43;;;;;;;-141.28;100.00;49215.53;5134405;27;20463;-77
2022/10/18 03:18:33;;;;;;;25.33;11.70;;;;;;;-141.28;100.00;49170.41;5112651;28;20543;-76
2022/10/18 03:21:06;;;;;;;20.87;10.43;;;;;;;-141.28;100.00;49264.59;5130743;27;20482;-79
2022/10/18 03:23:33;;;;;;;17.07;10.60;;;;;;;-141.28;100.00;49215.53;5134300;27;21006;-76
2022/10/18 03:26:00;;;;;;;20.37;10.50;;;;;;;-141.28;100.00;49260.66;5133769;27;20440;-77
2022/10/18 03:28:27;;;;;;;24.47;10.23;;;;;;;-141.28;100.00;49239.09;5124714;27;20825;-78
2022/10/18 03:31:00;;;;;;;22.13;12.27;;;;;;;-141.28;100.00;49301.88;5130620;27;20493;-74
2022/10/18 03:33:28;;;;;;;26.17;13.40;;;;;;;-141.28;100.00;49237.13;5133921;27;20824;-76
2022/10/18 03:35:55;;;;;;;22.10;11.20;;;;;;;-141.28;100.00;49294.03;5130579;27;20452;-77
2022/10/18 03:38:23;;;;;;;20.73;10.83;;;;;;;-141.28;100.00;49309.72;5133843;27;20512;-76
2022/10/18 03:40:50;;;;;;;19.37;11.43;;;;;;;-141.28;100.00;49341.13;5121071;27;20868;-77
2022/10/18 03:43:18;;;;;;;21.93;10.27;;;;;;;-141.28;100.00;49333.25;5134171;27;20444;-77
2022/10/18 03:45:45;;;;;;;19.17;10.93;;;;;;;-141.28;100.00;49345.03;5134185;27;20949;-77
2022/10/18 03:48:11;;;;;;;17.77;10.40;;;;;;;-141.28;100.00;49364.66;5134340;27;20497;-76
2022/10/18 03:50:40;;;;;;;19.83;10.40;;;;;;;-141.28;100.00;49388.22;5133468;27;20471;-76
2022/10/18 03:53:07;;;;;;;17.87;10.90;;;;;;;-141.28;100.00;49401.94;5132579;27;20451;-80
2022/10/18 03:55:36;;;;;;;19.23;10.33;;;;;;;-141.28;100.00;49415.69;5133764;27;20456;-77
2022/10/18 03:58:03;;;;;;;16.87;11.37;;;;;;;-141.28;100.00;49427.44;5133235;27;20443;-76
2022/10/18 04:00:30;;;;;;;36.33;20.70;;;;;;;-141.28;100.00;49439.22;5133463;27;20926;-77
2022/10/18 04:02:58;;;;;;;53.77;27.50;;;;;;;-141.28;100.00;49431.38;5133439;27;20560;-76
2022/10/18 04:05:27;;;;;;;29.87;17.00;;;;;;;-141.28;100.00;49427.44;5133101;27;20459;-77
2022/10/18 04:07:54;;;;;;;21.43;12.33;;;;;;;-141.28;100.00;49462.78;5132985;27;20448;-74
2022/10/18 04:10:21;;;;;;;38.23;15.17;;;;;;;-141.28;100.00;49488.28;5132886;27;20476;-79
2022/10/18 04:12:50;;;;;;;33.27;17.00;;;;;;;-141.28;100.00;49502.03;5133313;27;20447;-77
2022/10/18 04:15:17;;;;;;;23.03;13.40;;;;;;;-141.28;100.00;49492.22;5132985;27;20478;-78
2022/10/18 04:17:45;;;;;;;44.07;12.70;;;;;;;-141.28;100.00;49517.72;5133265;27;20937;-76
2022/10/18 04:20:12;;;;;;;33.40;12.57;;;;;;;-141.28;100.00;49521.63;5132871;27;20455;-75
2022/10/18 04:22:40;;;;;;;57.73;14.83;;;;;;;-141.28;100.00;49547.16;5132695;27;20487;-76
2022/10/18 04:25:08;;;;;;;45.17;16.37;;;;;;;-141.28;100.00;49541.25;5133179;27;20447;-78
2022/10/18 04:27:37;;;;;;;42.00;17.00;;;;;;;-141.28;100.00;49568.75;5131277;27;20487;-77
2022/10/18 04:30:07;;;;;;;47.93;16.00;;;;;;;-141.28;100.00;49509.88;5122034;27;20496;-78
2022/10/18 04:32:34;;;;;;;46.07;14.60;;;;;;;-141.28;100.00;49588.34;5132664;27;20467;-79
2022/10/18 04:35:03;;;;;;;53.03;15.03;;;;;;;-141.28;100.00;49611.91;5132577;27;20911;-75
2022/10/18 04:37:30;;;;;;;54.00;13.20;;;;;;;-141.28;100.00;49604.06;5132714;27;20508;-77
2022/10/18 04:39:57;;;;;;;35.40;14.23;;;;;;;-141.28;100.00;49637.41;5133051;27;20443;-77
2022/10/18 04:42:24;;;;;;;54.37;15.23;;;;;;;-141.28;100.00;49623.69;5132617;27;20894;-76
2022/10/18 04:44:53;;;;;;;47.90;15.77;;;;;;;-141.28;100.00;49643.31;5133016;27;20443;-78
2022/10/18 04:47:21;;;;;;;46.47;14.70;;;;;;;-141.28;100.00;49678.63;5135121;27;20938;-74
2022/10/18 04:49:50;;;;;;;34.80;12.47;;;;;;;-141.28;100.00;49678.63;5141232;27;20918;-75
2022/10/18 04:52:17;;;;;;;69.33;16.90;;;;;;;-141.28;100.00;49682.56;5122571;28;20962;-75
2022/10/18 04:54:44;;;;;;;59.40;15.50;;;;;;;-141.28;100.00;49690.41;5138864;27;20891;-76
2022/10/18 04:57:11;;;;;;;67.57;14.87;;;;;;;-141.28;100.00;49702.19;5134347;27;20443;-75
2022/10/18 04:59:39;;;;;;;62.30;15.73;;;;;;;-141.28;100.00;49729.66;5132631;27;20897;-79
2022/10/18 05:02:07;;;;;;;47.10;14.10;;;;;;;-141.28;100.00;49753.19;5132490;28;20913;-79
2022/10/18 05:04:36;;;;;;;56.20;14.53;;;;;;;-141.28;100.00;49776.75;5137576;27;20448;-76
2022/10/18 05:07:05;;;;;;;42.87;14.73;;;;;;;-141.28;100.00;49808.16;5139486;27;20463;-75
2022/10/18 05:09:32;;;;;;;41.93;14.20;;;;;;;-141.28;100.00;49796.38;5120890;27;20565;-79
2022/10/18 05:12:00;;;;;;;43.57;16.07;;;;;;;-141.28;100.00;49770.88;5139457;27;20961;-78
2022/10/18 05:14:26;;;;;;;34.17;14.73;;;;;;;-141.28;100.00;49798.34;5138988;27;20466;-77
2022/10/18 05:16:54;;;;;;;40.20;14.43;;;;;;;-141.28;100.00;49843.47;5139114;27;20440;-77
2022/10/18 05:19:22;;;;;;;34.33;13.50;;;;;;;-141.28;100.00;49870.94;5139333;27;20450;-76
2022/10/18 05:21:50;;;;;;;36.47;14.00;;;;;;;-141.28;100.00;49890.56;5139498;27;20532;-77
2022/10/18 05:24:17;;;;;;;34.93;17.00;;;;;;;-141.28;100.00;49904.31;5139417;27;20539;-77
2022/10/18 05:26:45;;;;;;;48.43;19.03;;;;;;;-141.28;100.00;50090.75;5120318;27;21387;-76
2022/10/18 05:29:12;;;;;;;47.57;16.07;;;;;;;-141.28;100.00;50287.03;5132680;27;20435;-76
2022/10/18 05:31:39;;;;;;;47.60;15.03;;;;;;;-141.28;100.00;50438.16;5139360;27;20443;-78
2022/10/18 05:34:06;;;;;;;34.17;13.43;;;;;;;-141.28;100.00;50408.72;5139327;27;20463;-77
2022/10/18 05:36:33;;;;;;;33.27;12.90;;;;;;;-141.28;100.00;50389.09;5138712;27;20448;-76
2022/10/18 05:39:03;;;;;;;24.13;13.53;;;;;;;-141.28;100.00;50636.41;5138957;27;20255;-80
2022/10/18 05:41:31;;;;;;;24.97;13.80;;;;;;;-141.28;100.00;50345.91;5138581;27;20206;-78
2022/10/18 05:43:58;;;;;;;32.93;15.97;;;;;;;-141.28;100.00;49988.69;5138755;27;20201;-80
2022/10/18 05:46:25;;;;;;;35.47;16.83;;;;;;;-141.28;100.00;49827.78;5138597;27;20194;-79
2022/10/18 05:48:52;;;;;;;41.20;17.83;;;;;;;-141.28;100.00;49827.78;5139238;27;20254;-76
2022/10/18 05:51:19;;;;;;;35.23;13.47;;;;;;;-141.28;100.00;49710.03;5138945;27;20194;-81
2022/10/18 05:53:47;;;;;;;24.50;11.00;;;;;;;-141.28;100.00;49749.28;5138511;27;20254;-78
2022/10/18 05:56:16;;;;;;;26.13;10.67;;;;;;;-141.28;100.00;49757.13;5139185;27;20198;-79
2022/10/18 05:58:43;;;;;;;31.33;10.50;;;;;;;-141.28;100.00;49841.50;5140865;27;20253;-77
2022/10/18 06:01:11;;;;;;;45.37;10.80;;;;;;;-141.28;100.00;50012.25;5139319;27;20235;-76
2022/10/18 06:03:39;;;;;;;23.87;10.47;;;;;;;-141.28;100.00;50204.59;5139004;27;20222;-77
2022/10/18 06:06:08;;;;;;;22.43;9.37;;;;;;;-141.28;100.00;50318.44;5139469;27;20201;-76
2022/10/18 06:08:36;;;;;;;17.43;9.87;;;;;;;-141.28;100.00;50347.88;5127076;27;20286;-79
2022/10/18 06:11:06;;;;;;;21.93;9.57;;;;;;;-141.28;100.00;50393.03;5134830;27;20198;-76
2022/10/18 06:13:35;;;;;;;22.33;11.13;;;;;;;-141.28;100.00;50483.31;5138710;27;20202;-77
2022/10/18 06:16:02;;;;;;;16.33;10.17;;;;;;;-141.28;100.00;50483.31;5136012;27;20233;-80
2022/10/18 06:18:29;;;;;;;20.77;11.33;;;;;;;-141.28;100.00;50495.09;5135669;27;20255;-77
2022/10/18 06:20:59;;;;;;;21.63;10.77;;;;;;;-141.28;100.00;50463.69;5135350;27;20197;-78
2022/10/18 06:23:26;;;;;;;25.87;11.97;;;;;;;-141.28;100.00;50473.50;5135001;27;20237;-75
2022/10/18 06:25:54;;;;;;;23.37;11.20;;;;;;;-141.28;100.00;50648.19;5135471;27;20551;-75
2022/10/18 06:28:21;;;;;;;24.13;12.20;;;;;;;-141.28;100.00;50667.81;5127507;27;20207;-76
2022/10/18 06:30:51;;;;;;;30.07;12.17;;;;;;;-141.28;100.00;50369.47;5131530;27;20202;-76
2022/10/18 06:33:18;;;;;;;25.27;13.10;;;;;;;-141.28;100.00;50322.34;5135611;27;20254;-76
2022/10/18 06:35:54;;;;;;;26.17;13.53;;;;;;;-141.28;100.00;50267.41;5132205;27;20199;-79
2022/10/18 06:38:21;;;;;;;29.70;13.17;;;;;;;-141.28;100.00;50126.09;5126517;27;20197;-76
2022/10/18 06:40:48;;;;;;;32.33;12.40;;;;;;;-141.28;100.00;49982.81;5134671;27;20607;-79
2022/10/18 06:43:15;;;;;;;42.10;13.77;;;;;;;-141.28;100.00;49886.66;5134776;27;20233;-76
2022/10/18 06:45:42;;;;;;;25.47;12.73;;;;;;;-141.28;100.00;49874.88;5134768;27;20194;-77
2022/10/18 06:48:10;;;;;;;38.37;13.33;;;;;;;-141.28;100.00;49918.06;5135043;27;20206;-76
2022/10/18 06:50:37;;;;;;;20.83;11.97;;;;;;;-141.28;100.00;49945.53;5126705;27;20210;-79
2022/10/18 06:53:07;;;;;;;21.83;11.57;;;;;;;-141.28;100.00;50027.97;5134402;27;20725;-80
2022/10/18 06:55:34;;;;;;;25.60;11.87;;;;;;;-141.28;100.00;50000.47;5134624;27;20664;-77
2022/10/18 06:58:01;;;;;;;20.13;11.43;;;;;;;-141.28;100.00;49996.56;5134545;27;20195;-76
2022/10/18 07:00:30;;;;;;;27.07;10.67;;;;;;;-141.28;100.00;49908.25;5134689;27;20622;-78
2022/10/18 07:02:58;;;;;;;23.50;10.47;;;;;;;-141.28;100.00;49971.03;5134164;27;20218;-79
2022/10/18 07:05:27;;;;;;;22.90;9.63;;;;;;;-141.28;100.00;50063.28;5134852;27;20202;-80
2022/10/18 07:07:54;;;;;;;28.17;8.97;;;;;;;-141.28;100.00;49898.44;5134683;27;20201;-76
2022/10/18 07:10:22;;;;;;;23.70;9.70;;;;;;;-141.28;100.00;50090.75;5134363;27;20226;-77
2022/10/18 07:12:51;;;;;;;24.67;9.43;;;;;;;-141.28;100.00;50000.47;5134036;27;20210;-75
2022/10/18 07:15:21;;;;;;;15.60;8.53;;;;;;;-141.28;100.00;49945.53;5133975;27;20598;-76
2022/10/18 07:17:48;;;;;;;18.73;9.20;;;;;;;-141.28;100.00;49949.44;5134402;27;20271;-78
2022/10/18 07:20:15;;;;;;;14.43;9.13;;;;;;;-141.28;100.00;49980.84;5134093;27;20202;-77
2022/10/18 07:22:44;;;;;;;21.57;9.23;;;;;;;-141.28;100.00;49973.00;5133513;27;20222;-76
2022/10/18 07:25:11;;;;;;;18.93;9.47;;;;;;;-141.28;100.00;50137.88;5133738;27;20195;-76
2022/10/18 07:27:40;;;;;;;16.20;9.90;;;;;;;-141.28;100.00;49933.75;5129836;27;20206;-77
2022/10/18 07:30:10;;;;;;;17.20;8.93;;;;;;;-141.28;100.00;49900.38;5105557;27;20289;-76
2022/10/18 07:32:37;;;;;;;12.57;8.07;;;;;;;-141.28;100.00;49835.63;5133777;27;20259;-78
2022/10/18 07:35:04;;;;;;;18.20;8.47;;;;;;;-141.28;100.00;49841.50;5134083;27;20198;-76
2022/10/18 07:37:32;;;;;;;19.23;10.37;;;;;;;-141.28;100.00;49810.13;5132932;27;20285;-78
2022/10/18 07:40:00;;;;;;;24.07;11.70;;;;;;;-141.28;100.00;49710.03;5133480;27;20198;-79
2022/10/18 07:42:27;;;;;;;22.27;10.83;;;;;;;-141.28;100.00;49643.31;5132988;27;20230;-76
2022/10/18 07:44:54;;;;;;;24.73;10.47;;;;;;;-141.28;100.00;49643.31;5133732;27;20202;-79
2022/10/18 07:47:22;;;;;;;19.77;9.57;;;;;;;-141.28;100.00;49568.75;5133624;27;20255;-78
2022/10/18 07:49:49;;;;;;;26.67;10.03;;;;;;;-141.28;100.00;49568.75;5133280;27;20255;-77
2022/10/18 07:52:17;;;;;;;19.10;8.03;;;;;;;-141.28;100.00;49558.94;5133186;27;20198;-78
2022/10/18 07:54:44;;;;;;;15.40;8.00;;;;;;;-141.28;100.00;49568.75;5133212;27;20202;-77
2022/10/18 07:57:15;;;;;;;18.57;7.77;;;;;;;-141.28;100.00;49541.25;5132844;27;20691;-79
2022/10/18 07:59:45;;;;;;;22.83;7.73;;;;;;;-141.28;100.00;49447.06;5132638;27;20723;-77
2022/10/18 08:02:11;;;;;;;18.57;7.13;;;;;;;-141.28;100.00;49547.16;5132944;27;20202;-76
2022/10/18 08:04:38;;;;;;;21.60;8.27;;;;;;;-141.28;100.00;49562.84;5132848;27;20578;-77
2022/10/18 08:07:05;;;;;;;18.40;7.90;;;;;;;-141.28;100.00;49541.25;5133225;27;20662;-77
2022/10/18 08:09:32;;;;;;;15.40;6.83;;;;;;;-141.28;100.00;49464.72;5132483;27;20583;-77
2022/10/18 08:12:00;;;;;;;16.93;6.93;;;;;;;-141.28;100.00;49973.00;5133141;27;20198;-76
2022/10/18 08:14:28;;;;;;;14.27;7.20;;;;;;;-141.28;100.00;50206.56;5132863;27;20194;-77
2022/10/18 08:16:56;;;;;;;11.07;6.63;;;;;;;-141.28;100.00;49792.44;5133066;27;20209;-78
2022/10/18 08:19:23;;;;;;;16.23;6.83;;;;;;;-141.28;100.00;49431.38;5132687;27;20213;-76
2022/10/18 08:21:50;;;;;;;10.63;6.53;;;;;;;-141.28;100.00;49396.06;5132700;27;20255;-76
2022/10/18 08:24:16;;;;;;;11.70;6.47;;;;;;;-141.28;100.00;49374.47;5132374;27;20233;-76
2022/10/18 08:26:44;;;;;;;13.07;6.47;;;;;;;-141.28;100.00;49254.78;5132332;27;20255;-77
2022/10/18 08:29:12;;;;;;;11.43;6.50;;;;;;;-141.28;100.00;49411.75;5119666;27;20206;-76
2022/10/18 08:31:40;;;;;;;15.07;5.83;;;;;;;-141.28;100.00;49396.06;5124919;27;20216;-78
2022/10/18 08:34:07;;;;;;;10.93;6.13;;;;;;;-141.28;100.00;49195.91;5131933;27;20278;-76
2022/10/18 08:36:34;;;;;;;17.27;6.73;;;;;;;-141.28;100.00;49337.19;5132720;27;20209;-80
2022/10/18 08:39:02;;;;;;;12.03;6.23;;;;;;;-141.28;100.00;49337.19;5132406;27;20613;-79
2022/10/18 08:41:46;;;;;;;15.80;5.90;;;;;;;-141.28;100.00;49870.94;5132669;27;20194;-75
2022/10/18 08:44:18;;;;;;;18.93;6.07;;;;;;;-141.28;100.00;49335.22;5132584;27;20611;-75
2022/10/18 08:46:49;;;;;;;13.70;6.90;;;;;;;-141.28;100.00;49168.44;5132468;27;20211;-77
2022/10/18 08:49:25;;;;;;;12.53;6.37;;;;;;;-141.28;100.00;49311.69;5133636;27;20206;-78
2022/10/18 08:51:53;;;;;;;13.73;6.27;;;;;;;-141.28;100.00;49313.66;5134767;27;20656;-77
2022/10/18 08:54:29;;;;;;;17.50;6.40;;;;;;;-141.28;100.00;49254.78;5132376;27;20591;-78
2022/10/18 08:57:00;;;;;;;16.23;6.47;;;;;;;-141.28;97.35;49278.31;5132446;27;20202;-76
2022/10/18 08:59:31;;;;;;;15.23;6.43;;;;;;;-141.28;97.37;49292.06;5132219;27;20228;-76
2022/10/18 09:02:07;;;;;;;11.90;6.13;;;;;;;-141.28;99.70;49278.31;5132194;28;20202;-76
2022/10/18 09:04:45;;;;;;;15.87;6.43;;;;;;;-141.28;98.11;49278.31;5132325;28;20236;-75
2022/10/18 09:07:24;;;;;;;17.63;5.90;;;;;;;-141.28;97.06;49313.66;5132297;28;20694;-80
2022/10/18 09:10:00;;;;;;;16.03;5.90;;;;;;;-141.28;99.45;49372.50;5132255;28;20225;-77
2022/10/18 09:12:45;;;;;;;15.03;5.60;;;;;;;-141.28;97.71;49156.66;5132600;28;20198;-79
2022/10/18 09:15:21;;;;;;;11.23;5.23;;;;;;;-141.28;96.96;49278.31;5132280;28;20202;-77
2022/10/18 09:18:06;;;;;;;12.43;5.43;;;;;;;-141.28;100.00;49282.25;5129241;28;20205;-79
2022/10/18 09:20:43;;;;;;;15.97;5.93;;;;;;;-141.28;100.00;49290.09;5132181;28;20186;-80
2022/10/18 09:23:21;;;;;;;14.13;6.20;;;;;;;-141.28;99.75;49278.31;5132103;28;20612;-77
2022/10/18 09:25:53;;;;;;;8.47;4.83;;;;;;;-141.28;94.77;49266.56;5120335;28;20210;-77
2022/10/18 09:28:31;;;;;;;11.67;5.20;;;;;;;-141.28;93.96;49207.69;5123685;28;20199;-77
2022/10/18 09:31:02;;;;;;;13.43;5.13;;;;;;;-141.28;85.78;49156.66;5134478;28;20210;-76
2022/10/18 09:33:47;;;;;;;6.73;4.87;;;;;;;-141.28;85.67;49229.28;5137545;28;20213;-76
2022/10/18 09:36:18;;;;;;;11.97;4.53;;;;;;;-141.28;80.06;49356.81;5124575;28;20210;-76
2022/10/18 09:38:49;;;;;;;10.67;4.17;;;;;;;-141.28;76.07;49254.78;5132053;28;20207;-77
2022/10/18 09:41:22;;;;;;;9.07;4.60;;;;;;;-141.28;73.66;49207.69;5132196;28;20693;-77
2022/10/18 09:43:55;;;;;;;15.87;4.93;;;;;;;-141.28;73.96;49201.81;5131679;28;20588;-78
2022/10/18 09:46:26;;;;;;;7.10;4.10;;;;;;;-141.28;69.91;49207.69;5132373;28;20220;-79
2022/10/18 09:48:59;;;;;;;11.57;4.47;;;;;;;-141.28;67.14;49184.13;5131679;28;20691;-78
2022/10/18 09:51:31;;;;;;;8.37;3.87;;;;;;;-141.28;66.04;49203.75;5134461;27;20285;-78
2022/10/18 09:54:16;;;;;;;10.33;4.00;;;;;;;-141.28;65.45;49211.59;5136145;27;20202;-76
2022/10/18 09:56:48;;;;;;;9.60;4.13;;;;;;;-141.28;65.59;49193.94;5129351;27;20205;-74
2022/10/18 09:59:35;;;;;;;11.87;4.10;;;;;;;-141.28;63.34;49184.13;5134989;27;20613;-75
2022/10/18 10:02:03;;;;;;;12.53;3.93;;;;;;;-141.28;66.71;49201.81;5135275;27;20220;-76
2022/10/18 10:04:31;;;;;;;8.33;4.30;;;;;;;-141.28;60.85;49160.59;5135378;27;20229;-78
2022/10/18 10:07:01;;;;;;;6.47;3.20;;;;;;;-141.28;56.62;49156.66;5135518;27;20209;-77
2022/10/18 10:09:29;;;;;;;5.10;3.17;;;;;;;-141.28;53.95;49135.09;5135414;27;20226;-77
2022/10/18 10:11:56;;;;;;;11.03;3.30;;;;;;;-141.28;55.34;49121.34;5135168;27;20194;-76
2022/10/18 10:14:26;;;;;;;4.10;3.07;;;;;;;-141.28;55.58;49129.19;5136094;27;20653;-78
2022/10/18 10:16:55;;;;;;;3.90;3.17;;;;;;;-141.28;55.99;49341.13;5135878;27;20202;-76
2022/10/18 10:19:33;;;;;;;11.13;3.37;;;;;;;-141.28;53.38;49086.03;5122126;27;20205;-79
2022/10/18 10:22:04;;;;;;;5.73;2.90;;;;;;;-141.28;53.38;49135.09;5134950;27;20201;-77
2022/10/18 10:24:42;;;;;;;4.30;3.17;;;;;;;-141.28;53.38;49119.38;5135162;27;20222;-78
2022/10/18 10:27:18;;;;;;;7.77;3.67;;;;;;;-141.28;51.78;49019.31;5134730;27;20206;-78
2022/10/18 10:30:04;;;;;;;6.87;3.50;;;;;;;-141.28;51.85;49180.22;5122024;27;20666;-80
2022/10/18 10:32:42;;;;;;;10.10;3.10;;;;;;;-141.28;49.84;49093.88;5135521;27;20202;-79
2022/10/18 10:35:23;;;;;;;6.20;3.17;;;;;;;-141.28;49.79;49089.97;5135002;27;20672;-78
2022/10/18 10:37:52;;;;;;;8.93;3.50;;;;;;;-141.28;50.18;49101.72;5135100;27;20202;-76
2022/10/18 10:40:21;;;;;;;7.70;3.47;;;;;;;-141.28;47.81;49033.06;5118845;27;20276;-77
2022/10/18 10:43:07;;;;;;;7.53;3.50;;;;;;;-141.28;46.34;48995.78;5135418;27;20204;-75
2022/10/18 10:45:37;;;;;;;9.93;3.67;;;;;;;-141.28;44.63;49011.47;5135331;27;20202;-76
2022/10/18 10:48:08;;;;;;;11.77;3.57;;;;;;;-141.28;43.87;49080.16;5136164;27;20246;-76
2022/10/18 10:50:53;;;;;;;4.10;2.70;;;;;;;-141.28;43.82;49070.34;5135352;27;20200;-76
2022/10/18 10:53:45;;;;;;;6.07;2.80;;;;;;;-141.28;42.54;49058.56;5135306;27;20206;-76
2022/10/18 10:56:17;;;;;;;7.77;2.73;;;;;;;-141.28;42.06;49015.41;5115392;27;20291;-78
2022/10/18 10:58:44;;;;;;;9.03;2.90;;;;;;;-141.28;42.51;49058.56;5134317;27;20223;-79
2022/10/18 11:01:30;;;;;;;18.97;3.37;;;;;;;-141.28;43.25;49060.53;5133484;27;20670;-80
2022/10/18 11:03:59;;;;;;;6.17;2.50;;;;;;;-141.28;41.43;49033.06;5130175;27;20228;-77
2022/10/18 11:06:46;;;;;;;9.13;2.67;;;;;;;-141.28;41.20;49023.25;5134391;27;20202;-78
2022/10/18 11:09:33;;;;;;;5.13;2.53;;;;;;;-141.28;40.07;49040.91;5131420;27;20239;-76
2022/10/18 11:12:06;;;;;;;6.47;2.33;;;;;;;-141.28;40.70;49109.59;5120633;27;20246;-75
2022/10/18 11:14:38;;;;;;;8.00;2.97;;;;;;;-141.28;40.13;49011.47;5134044;27;20561;-76
2022/10/18 11:17:19;;;;;;;8.27;2.60;;;;;;;-141.28;39.12;49003.63;5133990;27;20204;-76